createdAt,value
2022-09-12T00:02:42.958Z,85.34
2022-09-12T00:07:45.211Z,85.44
2022-09-12T00:12:46.922Z,85.92
2022-09-12T00:17:48.547Z,86.74
2022-09-12T00:22:50.177Z,86.48
2022-09-12T00:27:51.885Z,86.93
2022-09-12T00:32:54.728Z,87.11
2022-09-12T00:37:56.691Z,87.86
2022-09-12T00:42:59.048Z,86.64
2022-09-12T00:48:04.382Z,87.01
2022-09-12T00:53:07.994Z,87.55
2022-09-12T00:58:14.611Z,87.60
2022-09-12T01:03:19.397Z,87.28
2022-09-12T01:08:22.001Z,87.70
2022-09-12T01:13:24.383Z,87.52
2022-09-12T01:18:39.683Z,86.73
2022-09-12T01:24:01.661Z,85.26
2022-09-12T01:30:00.954Z,84.55
2022-09-12T01:35:16.558Z,85.58
2022-09-12T01:40:23.882Z,84.63
2022-09-12T01:45:54.291Z,84.59
2022-09-12T01:51:08.909Z,84.60
2022-09-12T01:56:17.783Z,84.61
2022-09-12T02:01:31.875Z,84.96
2022-09-12T02:06:52.294Z,84.99
2022-09-12T02:11:58.544Z,85.81
2022-09-12T02:17:07.446Z,85.99
2022-09-12T02:22:14.839Z,85.57
2022-09-12T02:27:21.657Z,84.04
2022-09-12T02:32:36.145Z,84.01
2022-09-12T02:38:03.726Z,84.68
2022-09-12T02:43:06.875Z,85.21
2022-09-12T02:48:14.992Z,85.33
2022-09-12T02:53:18.008Z,85.79
2022-09-12T02:58:26.974Z,86.24
2022-09-12T03:03:55.471Z,86.56
2022-09-12T03:09:39.584Z,86.41
2022-09-12T03:14:52.585Z,86.57
2022-09-12T03:20:03.558Z,86.72
2022-09-12T03:25:18.020Z,86.49
2022-09-12T03:30:20.530Z,86.36
2022-09-12T03:35:24.383Z,85.94
2022-09-12T03:40:25.975Z,84.81
2022-09-12T03:45:28.250Z,84.91
2022-09-12T03:50:30.395Z,85.03
2022-09-12T03:55:32.045Z,85.03
2022-09-12T04:00:33.698Z,85.19
2022-09-12T04:05:36.170Z,85.50
2022-09-12T04:10:37.834Z,85.24
2022-09-12T04:15:39.517Z,83.13
2022-09-12T04:20:41.375Z,83.57
2022-09-12T04:25:43.067Z,83.58
2022-09-12T04:30:44.740Z,84.24
2022-09-12T04:35:46.504Z,84.63
2022-09-12T04:40:48.390Z,85.40
2022-09-12T04:45:50.288Z,85.23
2022-09-12T04:50:51.959Z,85.58
2022-09-12T04:55:53.668Z,86.27
2022-09-12T05:00:55.385Z,87.41
2022-09-12T05:05:57.106Z,88.12
2022-09-12T05:11:06.830Z,88.13
2022-09-12T05:16:11.152Z,88.77
2022-09-12T05:21:18.928Z,88.82
2022-09-12T05:26:21.363Z,89.01
2022-09-12T05:31:27.923Z,89.55
2022-09-12T05:36:30.663Z,90.60
2022-09-12T05:41:33.910Z,92.53
2022-09-12T05:46:38.079Z,91.63
2022-09-12T05:51:42.985Z,88.93
2022-09-12T05:56:45.214Z,87.01
2022-09-12T06:01:47.600Z,85.69
2022-09-12T06:06:49.310Z,84.39
2022-09-12T06:11:51.867Z,83.57
2022-09-12T06:16:53.621Z,83.16
2022-09-12T06:21:55.496Z,84.60
2022-09-12T06:26:57.838Z,86.58
2022-09-12T06:31:59.725Z,88.13
2022-09-12T06:37:01.319Z,89.92
2022-09-12T06:42:03.642Z,91.01
2022-09-12T06:47:09.071Z,92.34
2022-09-12T06:52:10.706Z,93.11
2022-09-12T06:57:12.320Z,93.81
2022-09-12T07:02:14.194Z,94.79
2022-09-12T07:07:15.842Z,95.32
2022-09-12T07:12:17.476Z,95.69
2022-09-12T07:17:19.205Z,96.12
2022-09-12T07:22:20.802Z,96.27
2022-09-12T07:27:22.469Z,96.85
2022-09-12T07:32:24.142Z,97.49
2022-09-12T07:37:25.866Z,97.14
2022-09-12T07:42:27.527Z,97.53
2022-09-12T07:47:29.278Z,98.26
2022-09-12T07:52:31.256Z,99.27
2022-09-12T07:57:32.921Z,100.00
2022-09-12T08:02:35.028Z,100.00
2022-09-12T08:07:36.683Z,100.00
2022-09-12T08:12:38.593Z,100.00
2022-09-12T08:17:41.281Z,100.00
2022-09-12T08:22:43.305Z,100.00
2022-09-12T08:27:46.802Z,100.00
2022-09-12T08:32:48.695Z,99.77
2022-09-12T08:37:50.343Z,99.72
2022-09-12T08:43:41.044Z,98.45
2022-09-12T08:48:46.276Z,96.26
2022-09-12T08:53:51.796Z,96.91
2022-09-12T08:58:53.618Z,94.72
2022-09-12T09:04:43.347Z,94.00
2022-09-12T09:09:59.154Z,91.84
2022-09-12T09:15:23.620Z,91.38
2022-09-12T09:21:06.156Z,88.05
2022-09-12T09:26:22.344Z,83.94
2022-09-12T09:31:26.203Z,80.41
2022-09-12T09:36:49.784Z,78.97
2022-09-12T09:42:21.991Z,78.89
2022-09-12T09:47:23.789Z,77.20
2022-09-12T09:52:29.472Z,77.53
2022-09-12T09:57:34.058Z,75.96
2022-09-12T10:02:36.085Z,75.12
2022-09-12T10:07:38.053Z,74.54
2022-09-12T10:12:40.139Z,72.21
2022-09-12T10:17:48.062Z,71.72
2022-09-12T10:22:49.805Z,72.35
2022-09-12T10:27:58.530Z,72.81
2022-09-12T10:33:12.122Z,72.67
2022-09-12T10:38:22.661Z,71.70
2022-09-12T10:43:29.742Z,70.81
2022-09-12T10:48:32.543Z,71.28
2022-09-12T10:53:45.475Z,70.49
2022-09-12T10:59:12.076Z,71.86
2022-09-12T11:04:25.878Z,70.66
2022-09-12T11:09:39.677Z,71.07
2022-09-12T11:15:02.946Z,70.69
2022-09-12T11:20:27.831Z,69.37
2022-09-12T11:26:00.012Z,68.97
2022-09-12T11:31:19.824Z,67.92
2022-09-12T11:36:45.607Z,66.86
2022-09-12T11:41:52.536Z,64.99
2022-09-12T11:46:54.210Z,64.20
2022-09-12T11:52:11.078Z,65.33
2022-09-12T11:57:25.034Z,65.15
2022-09-12T12:02:28.933Z,63.00
2022-09-12T12:07:45.603Z,61.18
2022-09-12T12:12:48.495Z,63.17
2022-09-12T12:18:04.848Z,59.34
2022-09-12T12:23:06.555Z,60.01
2022-09-12T12:28:08.358Z,58.44
2022-09-12T12:33:16.031Z,59.02
2022-09-12T12:38:33.466Z,59.73
2022-09-12T12:43:35.263Z,58.87
2022-09-12T12:48:48.943Z,58.12
2022-09-12T12:53:52.346Z,58.34
2022-09-12T12:59:01.121Z,58.35
2022-09-12T13:04:12.250Z,59.09
2022-09-12T13:09:26.949Z,56.40
2022-09-12T13:14:34.499Z,57.25
2022-09-12T13:19:37.226Z,57.24
2022-09-12T13:24:44.663Z,55.50
2022-09-12T13:29:46.810Z,56.63
2022-09-12T13:35:12.954Z,56.02
2022-09-12T13:40:36.530Z,57.20
2022-09-12T13:45:41.711Z,56.06
2022-09-12T13:50:59.900Z,54.54
2022-09-12T13:56:01.949Z,54.48
2022-09-12T14:01:12.975Z,55.64
2022-09-12T14:06:16.310Z,56.19
2022-09-12T14:11:33.847Z,57.44
2022-09-12T14:16:40.511Z,55.90
2022-09-12T14:21:42.411Z,55.91
2022-09-12T14:26:44.874Z,55.75
2022-09-12T14:31:46.610Z,55.63
2022-09-12T14:36:54.988Z,55.44
2022-09-12T14:42:03.443Z,55.41
2022-09-12T14:47:21.154Z,54.59
2022-09-12T14:52:30.477Z,54.13
2022-09-12T14:57:40.463Z,54.48
2022-09-12T15:02:44.401Z,55.54
2022-09-12T15:07:55.521Z,54.82
2022-09-12T15:13:09.343Z,55.59
2022-09-12T15:18:12.131Z,55.71
2022-09-12T15:23:19.130Z,56.18
2022-09-12T15:28:23.483Z,55.95
2022-09-12T15:33:25.553Z,55.61
2022-09-12T15:38:27.322Z,54.55
2022-09-12T15:43:28.960Z,54.26
2022-09-12T15:48:30.962Z,54.11
2022-09-12T15:53:32.987Z,55.60
2022-09-12T15:58:34.902Z,55.40
2022-09-12T16:03:37.120Z,55.85
2022-09-12T16:08:38.773Z,55.79
2022-09-12T16:13:40.695Z,55.59
2022-09-12T16:18:42.720Z,56.27
2022-09-12T16:23:45.909Z,56.57
2022-09-12T16:28:47.965Z,56.96
2022-09-12T16:33:49.642Z,58.13
2022-09-12T16:38:53.655Z,58.86
2022-09-12T16:43:55.647Z,60.35
2022-09-12T16:48:58.595Z,61.72
2022-09-12T16:54:04.182Z,63.40
2022-09-12T16:59:06.506Z,64.58
2022-09-12T17:04:10.109Z,66.10
2022-09-12T17:09:13.079Z,67.76
2022-09-12T17:14:15.077Z,68.89
2022-09-12T17:19:22.035Z,70.08
2022-09-12T17:24:25.029Z,71.47
2022-09-12T17:29:27.361Z,73.27
2022-09-12T17:34:29.093Z,74.64
2022-09-12T17:39:30.926Z,75.91
2022-09-12T17:44:32.872Z,77.26
2022-09-12T17:49:34.958Z,78.02
2022-09-12T17:54:36.768Z,78.51
2022-09-12T17:59:38.437Z,79.19
2022-09-12T18:04:41.188Z,80.08
2022-09-12T18:09:43.322Z,80.79
2022-09-12T18:14:44.963Z,80.69
2022-09-12T18:19:52.843Z,81.27
2022-09-12T18:24:55.245Z,82.24
2022-09-12T18:30:19.702Z,82.38
2022-09-12T18:35:18.609Z,82.58
2022-09-12T18:40:20.249Z,82.86
2022-09-12T18:45:21.922Z,83.24
2022-09-12T18:50:24.577Z,83.42
2022-09-12T18:55:26.257Z,83.50
2022-09-12T19:00:28.560Z,83.74
2022-09-12T19:05:30.184Z,83.85
2022-09-12T19:10:31.857Z,83.53
2022-09-12T19:15:33.520Z,83.75
2022-09-12T19:20:36.389Z,84.14
2022-09-12T19:25:37.969Z,83.98
2022-09-12T19:30:47.144Z,84.63
2022-09-12T19:35:49.596Z,84.75
2022-09-12T19:40:59.553Z,84.94
2022-09-12T19:46:02.185Z,85.39
2022-09-12T19:51:04.570Z,86.37
2022-09-12T19:56:07.667Z,86.58
2022-09-12T20:01:11.018Z,86.82
2022-09-12T20:06:16.156Z,86.52
2022-09-12T20:11:19.822Z,86.82
2022-09-12T20:16:25.489Z,86.69
2022-09-12T20:21:31.448Z,87.24
2022-09-12T20:26:34.092Z,87.92
2022-09-12T20:31:38.468Z,88.76
2022-09-12T20:36:40.572Z,89.07
2022-09-12T20:41:42.542Z,89.01
2022-09-12T20:46:44.429Z,88.84
2022-09-12T20:51:48.330Z,88.72
2022-09-12T20:56:50.094Z,88.27
2022-09-12T21:01:52.198Z,88.58
2022-09-12T21:06:53.965Z,89.30
2022-09-12T21:11:55.666Z,89.89
2022-09-12T21:16:57.444Z,89.62
2022-09-12T21:21:59.168Z,89.05
2022-09-12T21:27:04.168Z,89.12
2022-09-12T21:32:09.026Z,89.37
2022-09-12T21:37:12.623Z,89.35
2022-09-12T21:42:14.404Z,89.48
2022-09-12T21:47:16.573Z,89.23
2022-09-12T21:52:18.243Z,88.23
2022-09-12T21:57:19.898Z,87.75
2022-09-12T22:02:23.057Z,87.59
2022-09-12T22:07:25.051Z,86.60
2022-09-12T22:12:28.123Z,86.16
2022-09-12T22:17:29.987Z,86.10
2022-09-12T22:22:50.291Z,86.12
2022-09-12T22:27:52.884Z,85.77
2022-09-12T22:32:54.635Z,84.95
2022-09-12T22:37:56.257Z,85.26
2022-09-12T22:42:57.949Z,83.97
2022-09-12T22:48:00.913Z,83.58
2022-09-12T22:53:03.040Z,83.59
2022-09-12T22:58:04.763Z,83.42
2022-09-12T23:03:06.452Z,84.19
2022-09-12T23:08:08.097Z,84.49
2022-09-12T23:13:10.739Z,84.40
2022-09-12T23:18:12.418Z,83.82
2022-09-12T23:23:14.047Z,84.03
2022-09-12T23:28:15.692Z,83.80
2022-09-12T23:33:17.649Z,83.92
2022-09-12T23:38:19.313Z,84.27
2022-09-12T23:43:21.311Z,84.47
2022-09-12T23:48:23.378Z,84.73
2022-09-12T23:53:25.713Z,85.43
2022-09-12T23:58:27.464Z,83.80
